sensor_id;sensor_type;location;lat;lon;timestamp;temperature;humidity
10660;DHT22;5378;53.206;13.316;2023-07-13T00:01:16;18.90;99.90
10660;DHT22;5378;53.206;13.316;2023-07-13T00:04:03;19.00;99.90
10660;DHT22;5378;53.206;13.316;2023-07-13T00:06:51;19.00;99.90
10660;DHT22;5378;53.206;13.316;2023-07-13T00:09:40;18.90;99.90
10660;DHT22;5378;53.206;13.316;2023-07-13T00:12:29;18.90;99.90
10660;DHT22;5378;53.206;13.316;2023-07-13T00:15:18;18.90;99.90
10660;DHT22;5378;53.206;13.316;2023-07-13T00:18:08;18.60;99.90
10660;DHT22;5378;53.206;13.316;2023-07-13T00:20:55;18.50;99.90
10660;DHT22;5378;53.206;13.316;2023-07-13T00:23:51;18.50;99.90
10660;DHT22;5378;53.206;13.316;2023-07-13T00:26:39;18.50;99.90
10660;DHT22;5378;53.206;13.316;2023-07-13T00:29:27;18.50;99.90
10660;DHT22;5378;53.206;13.316;2023-07-13T00:32:14;18.40;99.90
10660;DHT22;5378;53.206;13.316;2023-07-13T00:35:01;18.20;99.90
10660;DHT22;5378;53.206;13.316;2023-07-13T00:37:50;18.20;99.90
10660;DHT22;5378;53.206;13.316;2023-07-13T00:40:37;18.10;99.90
10660;DHT22;5378;53.206;13.316;2023-07-13T00:43:27;18.10;99.90
10660;DHT22;5378;53.206;13.316;2023-07-13T00:46:23;18.00;99.90
10660;DHT22;5378;53.206;13.316;2023-07-13T00:49:15;17.90;99.90
10660;DHT22;5378;53.206;13.316;2023-07-13T00:52:06;17.90;99.90
10660;DHT22;5378;53.206;13.316;2023-07-13T00:54:54;17.80;99.90
10660;DHT22;5378;53.206;13.316;2023-07-13T00:57:43;17.70;99.90
10660;DHT22;5378;53.206;13.316;2023-07-13T01:00:35;17.60;99.90
10660;DHT22;5378;53.206;13.316;2023-07-13T01:03:23;17.60;99.90
10660;DHT22;5378;53.206;13.316;2023-07-13T01:06:11;17.60;99.90
10660;DHT22;5378;53.206;13.316;2023-07-13T01:08:59;17.50;99.90
10660;DHT22;5378;53.206;13.316;2023-07-13T01:11:47;17.40;99.90
10660;DHT22;5378;53.206;13.316;2023-07-13T01:14:34;17.40;99.90
10660;DHT22;5378;53.206;13.316;2023-07-13T01:17:23;17.30;99.90
10660;DHT22;5378;53.206;13.316;2023-07-13T01:20:09;17.10;99.90
10660;DHT22;5378;53.206;13.316;2023-07-13T01:22:58;17.10;99.90
10660;DHT22;5378;53.206;13.316;2023-07-13T01:25:47;17.10;99.90
10660;DHT22;5378;53.206;13.316;2023-07-13T01:28:34;17.10;99.90
10660;DHT22;5378;53.206;13.316;2023-07-13T01:31:22;17.00;99.90
10660;DHT22;5378;53.206;13.316;2023-07-13T01:34:10;17.00;99.90
10660;DHT22;5378;53.206;13.316;2023-07-13T01:36:57;17.00;99.90
10660;DHT22;5378;53.206;13.316;2023-07-13T01:39:47;16.90;99.90
10660;DHT22;5378;53.206;13.316;2023-07-13T01:42:34;17.00;99.90
10660;DHT22;5378;53.206;13.316;2023-07-13T01:45:21;17.10;99.90
10660;DHT22;5378;53.206;13.316;2023-07-13T01:48:07;17.10;99.90
10660;DHT22;5378;53.206;13.316;2023-07-13T01:50:54;17.00;99.90
10660;DHT22;5378;53.206;13.316;2023-07-13T01:53:41;17.10;99.90
10660;DHT22;5378;53.206;13.316;2023-07-13T01:56:29;17.00;99.90
10660;DHT22;5378;53.206;13.316;2023-07-13T01:59:16;17.10;99.90
10660;DHT22;5378;53.206;13.316;2023-07-13T02:02:04;17.10;99.90
10660;DHT22;5378;53.206;13.316;2023-07-13T02:04:51;17.10;99.90
10660;DHT22;5378;53.206;13.316;2023-07-13T02:07:40;17.00;99.90
10660;DHT22;5378;53.206;13.316;2023-07-13T02:10:27;17.00;99.90
10660;DHT22;5378;53.206;13.316;2023-07-13T02:13:15;16.90;99.90
10660;DHT22;5378;53.206;13.316;2023-07-13T02:16:02;16.90;99.90
10660;DHT22;5378;53.206;13.316;2023-07-13T02:18:49;16.90;99.90
10660;DHT22;5378;53.206;13.316;2023-07-13T02:21:38;16.80;99.90
10660;DHT22;5378;53.206;13.316;2023-07-13T02:24:25;16.80;99.90
10660;DHT22;5378;53.206;13.316;2023-07-13T02:27:12;16.70;99.90
10660;DHT22;5378;53.206;13.316;2023-07-13T02:30:00;16.70;99.90
10660;DHT22;5378;53.206;13.316;2023-07-13T02:32:48;16.70;99.90
10660;DHT22;5378;53.206;13.316;2023-07-13T02:35:36;16.80;99.90
10660;DHT22;5378;53.206;13.316;2023-07-13T02:38:23;16.70;99.90
10660;DHT22;5378;53.206;13.316;2023-07-13T02:41:10;16.80;99.90
10660;DHT22;5378;53.206;13.316;2023-07-13T02:43:59;16.90;99.90
10660;DHT22;5378;53.206;13.316;2023-07-13T02:46:51;16.90;99.90
10660;DHT22;5378;53.206;13.316;2023-07-13T02:49:38;16.90;99.90
10660;DHT22;5378;53.206;13.316;2023-07-13T02:52:25;16.90;99.90
10660;DHT22;5378;53.206;13.316;2023-07-13T02:55:12;17.00;99.90
10660;DHT22;5378;53.206;13.316;2023-07-13T02:58:00;17.00;99.90
10660;DHT22;5378;53.206;13.316;2023-07-13T03:00:48;17.00;99.90
10660;DHT22;5378;53.206;13.316;2023-07-13T03:03:37;17.10;99.90
10660;DHT22;5378;53.206;13.316;2023-07-13T03:06:24;17.10;99.90
10660;DHT22;5378;53.206;13.316;2023-07-13T03:09:16;17.00;99.90
10660;DHT22;5378;53.206;13.316;2023-07-13T03:12:09;17.00;99.90
10660;DHT22;5378;53.206;13.316;2023-07-13T03:14:57;17.10;99.90
10660;DHT22;5378;53.206;13.316;2023-07-13T03:17:45;17.10;99.90
10660;DHT22;5378;53.206;13.316;2023-07-13T03:20:34;17.00;99.90
10660;DHT22;5378;53.206;13.316;2023-07-13T03:23:22;16.90;99.90
10660;DHT22;5378;53.206;13.316;2023-07-13T03:26:13;17.00;99.90
10660;DHT22;5378;53.206;13.316;2023-07-13T03:29:01;17.00;99.90
10660;DHT22;5378;53.206;13.316;2023-07-13T03:31:48;17.10;99.90
10660;DHT22;5378;53.206;13.316;2023-07-13T03:34:36;17.10;99.90
10660;DHT22;5378;53.206;13.316;2023-07-13T03:37:25;17.20;99.90
10660;DHT22;5378;53.206;13.316;2023-07-13T03:40:13;17.30;99.90
10660;DHT22;5378;53.206;13.316;2023-07-13T03:43:03;17.40;99.90
10660;DHT22;5378;53.206;13.316;2023-07-13T03:45:50;17.60;99.90
10660;DHT22;5378;53.206;13.316;2023-07-13T03:48:37;18.10;99.90
10660;DHT22;5378;53.206;13.316;2023-07-13T03:51:26;18.70;99.90
10660;DHT22;5378;53.206;13.316;2023-07-13T03:54:14;19.40;99.90
10660;DHT22;5378;53.206;13.316;2023-07-13T03:57:01;20.00;99.90
10660;DHT22;5378;53.206;13.316;2023-07-13T03:59:50;20.50;99.90
10660;DHT22;5378;53.206;13.316;2023-07-13T04:02:38;21.10;99.90
10660;DHT22;5378;53.206;13.316;2023-07-13T04:05:25;21.80;99.90
10660;DHT22;5378;53.206;13.316;2023-07-13T04:08:12;22.50;99.90
10660;DHT22;5378;53.206;13.316;2023-07-13T04:11:01;23.30;99.90
10660;DHT22;5378;53.206;13.316;2023-07-13T04:13:49;23.90;99.90
10660;DHT22;5378;53.206;13.316;2023-07-13T04:16:36;24.60;99.90
10660;DHT22;5378;53.206;13.316;2023-07-13T04:19:23;25.20;99.90
10660;DHT22;5378;53.206;13.316;2023-07-13T04:22:10;25.90;99.90
10660;DHT22;5378;53.206;13.316;2023-07-13T04:24:57;26.50;99.90
10660;DHT22;5378;53.206;13.316;2023-07-13T04:27:46;26.90;99.90
10660;DHT22;5378;53.206;13.316;2023-07-13T04:30:33;27.50;99.90
10660;DHT22;5378;53.206;13.316;2023-07-13T04:33:20;28.00;99.90
10660;DHT22;5378;53.206;13.316;2023-07-13T04:36:09;28.40;99.90
10660;DHT22;5378;53.206;13.316;2023-07-13T04:38:56;28.60;99.90
10660;DHT22;5378;53.206;13.316;2023-07-13T04:41:43;29.00;99.90
10660;DHT22;5378;53.206;13.316;2023-07-13T04:44:31;29.40;99.90
10660;DHT22;5378;53.206;13.316;2023-07-13T04:47:19;29.80;99.90
10660;DHT22;5378;53.206;13.316;2023-07-13T04:50:06;30.20;99.90
10660;DHT22;5378;53.206;13.316;2023-07-13T04:52:54;30.60;99.40
10660;DHT22;5378;53.206;13.316;2023-07-13T04:55:41;31.00;98.40
10660;DHT22;5378;53.206;13.316;2023-07-13T04:58:28;31.60;97.50
10660;DHT22;5378;53.206;13.316;2023-07-13T05:01:17;31.90;96.40
10660;DHT22;5378;53.206;13.316;2023-07-13T05:04:04;32.20;95.60
10660;DHT22;5378;53.206;13.316;2023-07-13T05:06:51;32.40;94.40
10660;DHT22;5378;53.206;13.316;2023-07-13T05:09:37;32.30;93.90
10660;DHT22;5378;53.206;13.316;2023-07-13T05:12:25;31.90;94.50
10660;DHT22;5378;53.206;13.316;2023-07-13T05:15:13;31.90;94.10
10660;DHT22;5378;53.206;13.316;2023-07-13T05:18:03;32.10;94.20
10660;DHT22;5378;53.206;13.316;2023-07-13T05:20:57;32.30;93.50
10660;DHT22;5378;53.206;13.316;2023-07-13T05:23:44;32.50;93.10
10660;DHT22;5378;53.206;13.316;2023-07-13T05:26:31;32.90;92.70
10660;DHT22;5378;53.206;13.316;2023-07-13T05:29:18;33.10;91.40
10660;DHT22;5378;53.206;13.316;2023-07-13T05:32:06;33.30;91.70
10660;DHT22;5378;53.206;13.316;2023-07-13T05:34:54;33.50;91.50
10660;DHT22;5378;53.206;13.316;2023-07-13T05:37:41;33.70;90.70
10660;DHT22;5378;53.206;13.316;2023-07-13T05:40:28;34.10;89.90
10660;DHT22;5378;53.206;13.316;2023-07-13T05:43:15;34.30;89.70
10660;DHT22;5378;53.206;13.316;2023-07-13T05:46:02;34.50;88.30
10660;DHT22;5378;53.206;13.316;2023-07-13T05:48:50;34.70;88.10
10660;DHT22;5378;53.206;13.316;2023-07-13T05:51:38;34.90;86.70
10660;DHT22;5378;53.206;13.316;2023-07-13T05:54:24;35.20;85.40
10660;DHT22;5378;53.206;13.316;2023-07-13T05:57:11;35.40;85.10
10660;DHT22;5378;53.206;13.316;2023-07-13T05:59:58;35.60;84.30
10660;DHT22;5378;53.206;13.316;2023-07-13T06:02:45;35.80;82.90
10660;DHT22;5378;53.206;13.316;2023-07-13T06:05:32;36.00;82.00
10660;DHT22;5378;53.206;13.316;2023-07-13T06:08:21;36.20;80.60
10660;DHT22;5378;53.206;13.316;2023-07-13T06:11:14;36.30;78.60
10660;DHT22;5378;53.206;13.316;2023-07-13T06:14:02;36.50;77.50
10660;DHT22;5378;53.206;13.316;2023-07-13T06:16:49;36.50;78.40
10660;DHT22;5378;53.206;13.316;2023-07-13T06:19:36;36.50;77.70
10660;DHT22;5378;53.206;13.316;2023-07-13T06:22:23;36.60;77.40
10660;DHT22;5378;53.206;13.316;2023-07-13T06:25:12;36.70;77.30
10660;DHT22;5378;53.206;13.316;2023-07-13T06:27:59;36.90;75.50
10660;DHT22;5378;53.206;13.316;2023-07-13T06:30:46;37.00;75.30
10660;DHT22;5378;53.206;13.316;2023-07-13T06:33:33;37.20;75.70
10660;DHT22;5378;53.206;13.316;2023-07-13T06:36:20;37.20;74.70
10660;DHT22;5378;53.206;13.316;2023-07-13T06:39:07;37.40;73.50
10660;DHT22;5378;53.206;13.316;2023-07-13T06:41:56;37.40;72.90
10660;DHT22;5378;53.206;13.316;2023-07-13T06:44:43;37.60;73.00
10660;DHT22;5378;53.206;13.316;2023-07-13T06:47:30;37.80;71.30
10660;DHT22;5378;53.206;13.316;2023-07-13T06:50:18;37.80;72.40
10660;DHT22;5378;53.206;13.316;2023-07-13T06:53:05;37.90;72.10
10660;DHT22;5378;53.206;13.316;2023-07-13T06:55:52;37.90;71.00
10660;DHT22;5378;53.206;13.316;2023-07-13T06:58:41;38.00;71.30
10660;DHT22;5378;53.206;13.316;2023-07-13T07:01:28;38.00;71.30
10660;DHT22;5378;53.206;13.316;2023-07-13T07:04:15;37.70;70.30
10660;DHT22;5378;53.206;13.316;2023-07-13T07:07:02;37.80;70.40
10660;DHT22;5378;53.206;13.316;2023-07-13T07:09:49;37.90;69.10
10660;DHT22;5378;53.206;13.316;2023-07-13T07:12:36;38.00;65.40
10660;DHT22;5378;53.206;13.316;2023-07-13T07:15:24;37.70;67.80
10660;DHT22;5378;53.206;13.316;2023-07-13T07:18:12;37.80;67.60
10660;DHT22;5378;53.206;13.316;2023-07-13T07:20:59;37.90;67.30
10660;DHT22;5378;53.206;13.316;2023-07-13T07:23:46;38.00;68.00
10660;DHT22;5378;53.206;13.316;2023-07-13T07:26:32;38.10;66.20
10660;DHT22;5378;53.206;13.316;2023-07-13T07:29:40;38.20;65.80
10660;DHT22;5378;53.206;13.316;2023-07-13T07:32:31;38.10;66.50
10660;DHT22;5378;53.206;13.316;2023-07-13T07:35:20;38.20;66.30
10660;DHT22;5378;53.206;13.316;2023-07-13T07:38:07;38.20;62.90
10660;DHT22;5378;53.206;13.316;2023-07-13T07:40:55;37.60;60.60
10660;DHT22;5378;53.206;13.316;2023-07-13T07:43:45;36.50;65.20
10660;DHT22;5378;53.206;13.316;2023-07-13T07:46:32;36.00;63.80
10660;DHT22;5378;53.206;13.316;2023-07-13T07:49:20;36.10;63.50
10660;DHT22;5378;53.206;13.316;2023-07-13T07:52:07;35.10;63.40
10660;DHT22;5378;53.206;13.316;2023-07-13T07:54:55;34.30;66.60
10660;DHT22;5378;53.206;13.316;2023-07-13T07:58:02;34.80;67.30
10660;DHT22;5378;53.206;13.316;2023-07-13T08:01:02;35.50;63.50
10660;DHT22;5378;53.206;13.316;2023-07-13T08:03:53;36.30;64.70
10660;DHT22;5378;53.206;13.316;2023-07-13T08:06:44;36.70;64.40
10660;DHT22;5378;53.206;13.316;2023-07-13T08:09:31;36.70;63.50
10660;DHT22;5378;53.206;13.316;2023-07-13T08:12:18;36.00;62.60
10660;DHT22;5378;53.206;13.316;2023-07-13T08:15:25;36.10;64.10
10660;DHT22;5378;53.206;13.316;2023-07-13T08:18:12;36.50;61.50
10660;DHT22;5378;53.206;13.316;2023-07-13T08:21:03;36.10;62.10
10660;DHT22;5378;53.206;13.316;2023-07-13T08:23:51;36.20;62.10
10660;DHT22;5378;53.206;13.316;2023-07-13T08:26:38;36.80;62.10
10660;DHT22;5378;53.206;13.316;2023-07-13T08:29:25;37.20;62.70
10660;DHT22;5378;53.206;13.316;2023-07-13T08:32:12;36.10;61.10
10660;DHT22;5378;53.206;13.316;2023-07-13T08:34:59;34.10;65.60
10660;DHT22;5378;53.206;13.316;2023-07-13T08:37:48;33.10;68.70
10660;DHT22;5378;53.206;13.316;2023-07-13T08:40:36;33.90;67.30
10660;DHT22;5378;53.206;13.316;2023-07-13T08:43:28;34.30;65.80
10660;DHT22;5378;53.206;13.316;2023-07-13T08:46:17;33.60;63.80
10660;DHT22;5378;53.206;13.316;2023-07-13T08:49:09;32.40;68.40
10660;DHT22;5378;53.206;13.316;2023-07-13T08:52:00;32.10;70.40
10660;DHT22;5378;53.206;13.316;2023-07-13T08:54:50;32.50;67.90
10660;DHT22;5378;53.206;13.316;2023-07-13T08:57:42;33.60;68.40
10660;DHT22;5378;53.206;13.316;2023-07-13T09:00:36;33.20;67.20
10660;DHT22;5378;53.206;13.316;2023-07-13T09:03:29;32.10;68.00
10660;DHT22;5378;53.206;13.316;2023-07-13T09:06:20;30.80;70.70
10660;DHT22;5378;53.206;13.316;2023-07-13T09:09:16;30.90;74.20
10660;DHT22;5378;53.206;13.316;2023-07-13T09:12:09;30.40;70.00
10660;DHT22;5378;53.206;13.316;2023-07-13T09:15:02;29.60;73.10
10660;DHT22;5378;53.206;13.316;2023-07-13T09:17:51;29.20;77.20
10660;DHT22;5378;53.206;13.316;2023-07-13T09:20:45;28.90;78.80
10660;DHT22;5378;53.206;13.316;2023-07-13T09:23:35;28.80;79.30
10660;DHT22;5378;53.206;13.316;2023-07-13T09:26:23;28.90;77.10
10660;DHT22;5378;53.206;13.316;2023-07-13T09:29:14;29.30;79.00
10660;DHT22;5378;53.206;13.316;2023-07-13T09:32:07;29.90;76.70
10660;DHT22;5378;53.206;13.316;2023-07-13T09:34:55;30.00;72.60
10660;DHT22;5378;53.206;13.316;2023-07-13T09:37:44;29.50;74.40
10660;DHT22;5378;53.206;13.316;2023-07-13T09:40:43;28.80;76.20
10660;DHT22;5378;53.206;13.316;2023-07-13T09:43:31;28.00;79.30
10660;DHT22;5378;53.206;13.316;2023-07-13T09:46:21;27.30;82.50
10660;DHT22;5378;53.206;13.316;2023-07-13T09:49:11;26.90;84.40
10660;DHT22;5378;53.206;13.316;2023-07-13T09:52:00;26.60;82.50
10660;DHT22;5378;53.206;13.316;2023-07-13T09:54:50;26.50;83.10
10660;DHT22;5378;53.206;13.316;2023-07-13T09:57:46;26.50;82.20
10660;DHT22;5378;53.206;13.316;2023-07-13T10:00:36;26.30;82.10
10660;DHT22;5378;53.206;13.316;2023-07-13T10:03:25;26.40;89.00
10660;DHT22;5378;53.206;13.316;2023-07-13T10:06:16;26.50;89.00
10660;DHT22;5378;53.206;13.316;2023-07-13T10:09:07;27.00;88.40
10660;DHT22;5378;53.206;13.316;2023-07-13T10:11:54;27.40;87.80
10660;DHT22;5378;53.206;13.316;2023-07-13T10:14:41;27.50;86.00
10660;DHT22;5378;53.206;13.316;2023-07-13T10:17:31;27.60;85.60
10660;DHT22;5378;53.206;13.316;2023-07-13T10:20:18;27.60;83.10
10660;DHT22;5378;53.206;13.316;2023-07-13T10:23:13;27.60;86.80
10660;DHT22;5378;53.206;13.316;2023-07-13T10:26:02;27.60;84.70
10660;DHT22;5378;53.206;13.316;2023-07-13T10:28:53;27.60;87.10
10660;DHT22;5378;53.206;13.316;2023-07-13T10:31:44;27.80;84.00
10660;DHT22;5378;53.206;13.316;2023-07-13T10:34:31;27.60;82.30
10660;DHT22;5378;53.206;13.316;2023-07-13T10:37:21;27.30;84.90
10660;DHT22;5378;53.206;13.316;2023-07-13T10:40:16;27.00;84.70
10660;DHT22;5378;53.206;13.316;2023-07-13T10:43:09;26.50;86.30
10660;DHT22;5378;53.206;13.316;2023-07-13T10:46:02;26.20;89.10
10660;DHT22;5378;53.206;13.316;2023-07-13T10:48:53;25.80;90.20
10660;DHT22;5378;53.206;13.316;2023-07-13T10:51:41;25.50;91.00
10660;DHT22;5378;53.206;13.316;2023-07-13T10:54:31;25.30;89.80
10660;DHT22;5378;53.206;13.316;2023-07-13T10:57:21;25.30;92.60
10660;DHT22;5378;53.206;13.316;2023-07-13T11:00:17;25.50;93.10
10660;DHT22;5378;53.206;13.316;2023-07-13T11:03:04;25.80;91.50
10660;DHT22;5378;53.206;13.316;2023-07-13T11:06:03;25.90;90.60
10660;DHT22;5378;53.206;13.316;2023-07-13T11:08:53;25.80;91.50
10660;DHT22;5378;53.206;13.316;2023-07-13T11:11:40;25.70;92.70
10660;DHT22;5378;53.206;13.316;2023-07-13T11:14:36;25.70;92.10
10660;DHT22;5378;53.206;13.316;2023-07-13T11:17:34;25.60;92.60
10660;DHT22;5378;53.206;13.316;2023-07-13T11:20:35;25.50;92.40
10660;DHT22;5378;53.206;13.316;2023-07-13T11:23:30;25.40;93.10
10660;DHT22;5378;53.206;13.316;2023-07-13T11:26:41;25.60;94.00
10660;DHT22;5378;53.206;13.316;2023-07-13T11:29:37;25.90;93.50
10660;DHT22;5378;53.206;13.316;2023-07-13T11:32:29;26.50;93.50
10660;DHT22;5378;53.206;13.316;2023-07-13T11:35:22;26.90;91.80
10660;DHT22;5378;53.206;13.316;2023-07-13T11:38:14;27.00;90.00
10660;DHT22;5378;53.206;13.316;2023-07-13T11:41:04;26.80;91.70
10660;DHT22;5378;53.206;13.316;2023-07-13T11:43:54;26.60;90.60
10660;DHT22;5378;53.206;13.316;2023-07-13T11:46:46;26.40;92.00
10660;DHT22;5378;53.206;13.316;2023-07-13T11:49:42;26.10;90.10
10660;DHT22;5378;53.206;13.316;2023-07-13T11:52:33;25.90;90.50
10660;DHT22;5378;53.206;13.316;2023-07-13T11:55:21;25.60;91.10
10660;DHT22;5378;53.206;13.316;2023-07-13T11:58:10;25.30;92.60
10660;DHT22;5378;53.206;13.316;2023-07-13T12:00:59;25.00;94.10
10660;DHT22;5378;53.206;13.316;2023-07-13T12:03:49;24.80;94.50
10660;DHT22;5378;53.206;13.316;2023-07-13T12:06:38;24.60;94.60
10660;DHT22;5378;53.206;13.316;2023-07-13T12:09:28;24.30;95.60
10660;DHT22;5378;53.206;13.316;2023-07-13T12:12:18;24.20;96.50
10660;DHT22;5378;53.206;13.316;2023-07-13T12:15:06;24.20;97.50
10660;DHT22;5378;53.206;13.316;2023-07-13T12:17:54;24.30;98.80
10660;DHT22;5378;53.206;13.316;2023-07-13T12:20:45;24.50;97.90
10660;DHT22;5378;53.206;13.316;2023-07-13T12:23:34;25.00;97.90
10660;DHT22;5378;53.206;13.316;2023-07-13T12:26:21;25.50;96.90
10660;DHT22;5378;53.206;13.316;2023-07-13T12:29:15;25.70;95.60
10660;DHT22;5378;53.206;13.316;2023-07-13T12:32:08;26.10;95.10
10660;DHT22;5378;53.206;13.316;2023-07-13T12:35:02;26.20;94.40
10660;DHT22;5378;53.206;13.316;2023-07-13T12:37:57;26.50;94.20
10660;DHT22;5378;53.206;13.316;2023-07-13T12:40:49;26.50;93.60
10660;DHT22;5378;53.206;13.316;2023-07-13T12:43:37;26.30;94.40
10660;DHT22;5378;53.206;13.316;2023-07-13T12:46:24;26.00;93.90
10660;DHT22;5378;53.206;13.316;2023-07-13T12:49:15;25.70;94.20
10660;DHT22;5378;53.206;13.316;2023-07-13T12:52:09;25.50;94.70
10660;DHT22;5378;53.206;13.316;2023-07-13T12:55:07;25.40;96.60
10660;DHT22;5378;53.206;13.316;2023-07-13T12:58:03;25.40;94.20
10660;DHT22;5378;53.206;13.316;2023-07-13T13:00:51;25.60;94.60
10660;DHT22;5378;53.206;13.316;2023-07-13T13:03:47;25.90;94.50
10660;DHT22;5378;53.206;13.316;2023-07-13T13:06:35;26.30;92.80
10660;DHT22;5378;53.206;13.316;2023-07-13T13:09:23;26.60;92.50
10660;DHT22;5378;53.206;13.316;2023-07-13T13:12:11;26.70;91.40
10660;DHT22;5378;53.206;13.316;2023-07-13T13:15:00;26.90;92.30
10660;DHT22;5378;53.206;13.316;2023-07-13T13:17:46;26.70;90.20
10660;DHT22;5378;53.206;13.316;2023-07-13T13:20:33;26.70;89.10
10660;DHT22;5378;53.206;13.316;2023-07-13T13:23:20;26.70;90.30
10660;DHT22;5378;53.206;13.316;2023-07-13T13:26:11;26.70;91.70
10660;DHT22;5378;53.206;13.316;2023-07-13T13:29:00;26.80;91.70
10660;DHT22;5378;53.206;13.316;2023-07-13T13:31:47;27.00;89.10
10660;DHT22;5378;53.206;13.316;2023-07-13T13:34:34;27.10;87.70
10660;DHT22;5378;53.206;13.316;2023-07-13T13:37:23;27.00;89.20
10660;DHT22;5378;53.206;13.316;2023-07-13T13:40:15;26.90;89.20
10660;DHT22;5378;53.206;13.316;2023-07-13T13:43:08;27.00;88.90
10660;DHT22;5378;53.206;13.316;2023-07-13T13:46:02;27.30;89.80
10660;DHT22;5378;53.206;13.316;2023-07-13T13:48:49;27.70;85.70
10660;DHT22;5378;53.206;13.316;2023-07-13T13:51:37;27.90;87.70
10660;DHT22;5378;53.206;13.316;2023-07-13T13:54:24;27.90;85.50
10660;DHT22;5378;53.206;13.316;2023-07-13T13:57:12;27.80;85.60
10660;DHT22;5378;53.206;13.316;2023-07-13T13:59:59;27.70;85.60
10660;DHT22;5378;53.206;13.316;2023-07-13T14:02:51;27.70;85.50
10660;DHT22;5378;53.206;13.316;2023-07-13T14:05:40;27.50;86.30
10660;DHT22;5378;53.206;13.316;2023-07-13T14:08:27;27.30;84.10
10660;DHT22;5378;53.206;13.316;2023-07-13T14:11:17;27.20;86.20
10660;DHT22;5378;53.206;13.316;2023-07-13T14:14:05;27.20;86.70
10660;DHT22;5378;53.206;13.316;2023-07-13T14:16:54;27.30;84.60
10660;DHT22;5378;53.206;13.316;2023-07-13T14:19:44;27.00;86.60
10660;DHT22;5378;53.206;13.316;2023-07-13T14:22:31;27.00;88.50
10660;DHT22;5378;53.206;13.316;2023-07-13T14:25:19;27.10;87.60
10660;DHT22;5378;53.206;13.316;2023-07-13T14:28:18;27.30;87.20
10660;DHT22;5378;53.206;13.316;2023-07-13T14:31:05;27.50;86.30
10660;DHT22;5378;53.206;13.316;2023-07-13T14:33:53;27.50;85.30
10660;DHT22;5378;53.206;13.316;2023-07-13T14:36:42;27.40;83.90
10660;DHT22;5378;53.206;13.316;2023-07-13T14:39:31;27.10;84.30
10660;DHT22;5378;53.206;13.316;2023-07-13T14:42:18;27.00;85.30
10660;DHT22;5378;53.206;13.316;2023-07-13T14:45:11;27.00;88.20
10660;DHT22;5378;53.206;13.316;2023-07-13T14:47:58;26.80;85.20
10660;DHT22;5378;53.206;13.316;2023-07-13T14:50:45;26.80;85.60
10660;DHT22;5378;53.206;13.316;2023-07-13T14:53:34;26.90;85.60
10660;DHT22;5378;53.206;13.316;2023-07-13T14:56:25;26.70;84.80
10660;DHT22;5378;53.206;13.316;2023-07-13T14:59:13;26.40;84.80
10660;DHT22;5378;53.206;13.316;2023-07-13T15:02:00;25.90;89.00
10660;DHT22;5378;53.206;13.316;2023-07-13T15:04:47;25.50;90.20
10660;DHT22;5378;53.206;13.316;2023-07-13T15:07:34;25.20;91.60
10660;DHT22;5378;53.206;13.316;2023-07-13T15:10:24;25.40;92.40
10660;DHT22;5378;53.206;13.316;2023-07-13T15:13:16;25.00;92.90
10660;DHT22;5378;53.206;13.316;2023-07-13T15:16:04;25.20;93.30
10660;DHT22;5378;53.206;13.316;2023-07-13T15:18:53;25.00;93.50
10660;DHT22;5378;53.206;13.316;2023-07-13T15:21:40;24.90;92.80
10660;DHT22;5378;53.206;13.316;2023-07-13T15:24:29;24.60;93.20
10660;DHT22;5378;53.206;13.316;2023-07-13T15:27:17;24.40;94.10
10660;DHT22;5378;53.206;13.316;2023-07-13T15:30:05;24.20;95.60
10660;DHT22;5378;53.206;13.316;2023-07-13T15:32:53;24.20;95.80
10660;DHT22;5378;53.206;13.316;2023-07-13T15:35:40;24.10;99.80
10660;DHT22;5378;53.206;13.316;2023-07-13T15:38:29;23.90;99.90
10660;DHT22;5378;53.206;13.316;2023-07-13T15:41:19;23.60;99.90
10660;DHT22;5378;53.206;13.316;2023-07-13T15:44:22;23.10;99.90
10660;DHT22;5378;53.206;13.316;2023-07-13T15:47:11;22.70;99.90
10660;DHT22;5378;53.206;13.316;2023-07-13T15:49:58;22.10;99.90
10660;DHT22;5378;53.206;13.316;2023-07-13T15:52:48;21.70;99.90
10660;DHT22;5378;53.206;13.316;2023-07-13T15:55:37;21.40;99.90
10660;DHT22;5378;53.206;13.316;2023-07-13T15:58:25;21.30;99.90
10660;DHT22;5378;53.206;13.316;2023-07-13T16:01:15;21.20;99.90
10660;DHT22;5378;53.206;13.316;2023-07-13T16:04:03;21.40;99.90
10660;DHT22;5378;53.206;13.316;2023-07-13T16:06:51;21.60;99.90
10660;DHT22;5378;53.206;13.316;2023-07-13T16:09:38;21.80;99.90
10660;DHT22;5378;53.206;13.316;2023-07-13T16:12:26;21.90;99.90
10660;DHT22;5378;53.206;13.316;2023-07-13T16:15:15;21.40;99.90
10660;DHT22;5378;53.206;13.316;2023-07-13T16:18:03;21.20;99.90
10660;DHT22;5378;53.206;13.316;2023-07-13T16:20:51;21.10;99.90
10660;DHT22;5378;53.206;13.316;2023-07-13T16:23:39;20.90;99.90
10660;DHT22;5378;53.206;13.316;2023-07-13T16:26:34;20.80;99.90
10660;DHT22;5378;53.206;13.316;2023-07-13T16:29:27;20.80;99.90
10660;DHT22;5378;53.206;13.316;2023-07-13T16:32:14;20.40;99.90
10660;DHT22;5378;53.206;13.316;2023-07-13T16:35:04;20.20;99.90
10660;DHT22;5378;53.206;13.316;2023-07-13T16:37:51;19.90;99.90
10660;DHT22;5378;53.206;13.316;2023-07-13T16:40:46;19.80;99.90
10660;DHT22;5378;53.206;13.316;2023-07-13T16:43:33;19.50;99.90
10660;DHT22;5378;53.206;13.316;2023-07-13T16:46:22;19.40;99.90
10660;DHT22;5378;53.206;13.316;2023-07-13T16:49:20;19.40;99.90
10660;DHT22;5378;53.206;13.316;2023-07-13T16:52:11;19.20;99.90
10660;DHT22;5378;53.206;13.316;2023-07-13T16:54:59;18.90;99.90
10660;DHT22;5378;53.206;13.316;2023-07-13T16:57:46;18.80;99.90
10660;DHT22;5378;53.206;13.316;2023-07-13T17:00:34;18.70;99.90
10660;DHT22;5378;53.206;13.316;2023-07-13T17:03:23;18.70;99.90
10660;DHT22;5378;53.206;13.316;2023-07-13T17:06:22;18.80;99.90
10660;DHT22;5378;53.206;13.316;2023-07-13T17:09:13;18.90;99.90
10660;DHT22;5378;53.206;13.316;2023-07-13T17:12:00;19.00;99.90
10660;DHT22;5378;53.206;13.316;2023-07-13T17:14:48;19.00;99.90
10660;DHT22;5378;53.206;13.316;2023-07-13T17:17:37;19.10;99.90
10660;DHT22;5378;53.206;13.316;2023-07-13T17:20:30;19.10;99.90
10660;DHT22;5378;53.206;13.316;2023-07-13T17:23:20;19.10;99.90
10660;DHT22;5378;53.206;13.316;2023-07-13T17:26:10;19.00;99.90
10660;DHT22;5378;53.206;13.316;2023-07-13T17:28:57;19.00;99.90
10660;DHT22;5378;53.206;13.316;2023-07-13T17:31:44;19.10;99.90
10660;DHT22;5378;53.206;13.316;2023-07-13T17:34:32;19.30;99.90
10660;DHT22;5378;53.206;13.316;2023-07-13T17:37:20;19.50;99.90
10660;DHT22;5378;53.206;13.316;2023-07-13T17:40:13;19.70;99.90
10660;DHT22;5378;53.206;13.316;2023-07-13T17:43:05;19.90;99.90
10660;DHT22;5378;53.206;13.316;2023-07-13T17:45:53;20.00;99.90
10660;DHT22;5378;53.206;13.316;2023-07-13T17:48:42;20.00;99.90